Portada
METAR-TAF:

METAR-TAF

Aeroports :

Tennant Creek, Austràlia

latitud: 19-38-04S, longitud: 134-11-00E, altitud: 377 m

Observació

L'informe es va fer fa 16 minuts, a les 19:00 UTC
Vent 8 kt del Est/Sud-Est
Temperatura 12°C
Humitat 19%
Pressió 1019 hPa
Visibilitat 10 km o més

METAR: YTNK 141900Z AUTO 11008KT 9999 // NCD 12/M11 Q1019

Hora: 04:46 (19:16 UTC)

Pronòstic

L'informe es va fer fa 6 hores i 33 minuts, a les 12:43 UTC
Pronòstic vàlid del 14 a les 14 UTC al 15 a les 02 UTC
Vent 7 kt del Est/Sud-Est
Visibilitat 10 km o més
sense núvols per sota de 1500 mi sense presència de cumulonimbus.
A partir de les 14 a les 2300 UTC
Vent 12 kt del Est/Sud-Est
Visibilitat 10 km o més
sense núvols per sota de 1500 mi sense presència de cumulonimbus.

TAF: YTNK 141243Z 1414/1502 11007KT CAVOK FM142300 12012KT CAVOK

Observacions i pronòstics meteorològics de més de 4000 aeroports (METAR i TAF).

Les estacions disponibles són els punts grocs i vermells al mapa.

Posi el ratolí al punt desitjat per veure el nom de l'estació.

Feu clic per veure les observacions i els pronòstics meteorològics.

Per canviar el mapa: feu clic els botons verds amb una creu de color negre per apropar; al botó verd amb un guió per allunyar la imatge; o en les fletxes verdes per a mapes adjacents.


METAR-TAF: